Time;durP1;ratioP1;P1;durP2;ratioP2;P2;SDS_P1;SDS_P2;PMS_P1;PMS_P2;Temp;Humidity;BMP_temperature;BMP_pressure;BME280_temperature;BME280_humidity;BME280_pressure;Samples;Min_cycle;Max_cycle;Signal;HPM_P1;HPM_P2
2023/03/17 00:02:23;;;;;;;;;;;;;;;14.43;69.65;100657.25;4983594;28;19918;-51
2023/03/17 00:04:48;;;;;;;;;;;;;;;14.40;70.48;100648.81;4986937;28;19914;-53
2023/03/17 00:07:15;;;;;;;;;;;;;;;14.37;70.25;100657.34;4982205;28;19965;-56
2023/03/17 00:09:41;;;;;;;;;;;;;;;14.62;69.69;100659.94;4987029;28;19914;-53
2023/03/17 00:12:10;;;;;;;;;;;;;;;14.39;69.64;100661.44;4988797;28;19946;-53
2023/03/17 00:14:36;;;;;;;;;;;;;;;14.36;70.14;100651.16;4989902;28;19921;-50
2023/03/17 00:17:01;;;;;;;;;;;;;;;14.38;70.24;100651.75;4994109;28;19981;-51
2023/03/17 00:19:29;;;;;;;;;;;;;;;14.28;70.29;100648.75;4989667;28;19925;-51
2023/03/17 00:21:55;;;;;;;;;;;;;;;14.65;69.27;100646.03;4986860;28;19922;-53
2023/03/17 00:24:22;;;;;;;;;;;;;;;14.39;69.62;100641.78;4989481;28;19915;-52
2023/03/17 00:26:48;;;;;;;;;;;;;;;14.41;69.74;100645.91;4990733;28;19989;-52
2023/03/17 00:29:15;;;;;;;;;;;;;;;14.48;69.95;100633.19;4988269;28;19926;-53
2023/03/17 00:31:43;;;;;;;;;;;;;;;14.23;70.66;100632.47;4998210;28;19921;-53
2023/03/17 00:34:11;;;;;;;;;;;;;;;14.17;70.55;100634.16;4997859;28;19918;-54
2023/03/17 00:36:46;;;;;;;;;;;;;;;14.27;70.61;100628.28;4982553;28;19985;-52
2023/03/17 00:39:13;;;;;;;;;;;;;;;14.28;69.84;100627.22;4970472;28;19915;-55
2023/03/17 00:41:38;;;;;;;;;;;;;;;14.32;69.76;100628.44;4969638;28;19919;-54
2023/03/17 00:44:05;;;;;;;;;;;;;;;14.45;69.72;100632.84;4972996;28;19974;-51
2023/03/17 00:46:36;;;;;;;;;;;;;;;14.40;69.72;100641.56;4966981;28;19925;-51
2023/03/17 00:49:04;;;;;;;;;;;;;;;14.39;69.60;100637.25;4969019;28;19915;-50
2023/03/17 00:51:29;;;;;;;;;;;;;;;14.22;70.30;100636.19;4967661;28;19990;-52
2023/03/17 00:53:55;;;;;;;;;;;;;;;14.29;69.67;100631.56;4970245;28;19918;-55
2023/03/17 00:56:21;;;;;;;;;;;;;;;14.17;70.71;100626.94;4974230;28;19914;-54
2023/03/17 00:58:47;;;;;;;;;;;;;;;14.06;70.60;100624.97;4967750;28;19918;-53
2023/03/17 01:01:14;;;;;;;;;;;;;;;14.37;69.68;100619.66;4972041;28;19953;-50
2023/03/17 01:03:40;;;;;;;;;;;;;;;14.31;69.10;100613.34;4969275;28;19911;-53
2023/03/17 01:06:07;;;;;;;;;;;;;;;14.39;69.14;100607.66;4964027;28;19914;-50
2023/03/17 01:08:32;;;;;;;;;;;;;;;14.36;69.37;100621.56;4967675;28;19927;-49
2023/03/17 01:10:59;;;;;;;;;;;;;;;14.33;69.21;100619.31;4967820;28;19919;-52
2023/03/17 01:13:25;;;;;;;;;;;;;;;14.39;68.92;100613.03;4973738;28;19925;-54
2023/03/17 01:15:51;;;;;;;;;;;;;;;14.39;68.65;100613.03;4972990;28;19914;-55
2023/03/17 01:18:19;;;;;;;;;;;;;;;14.34;68.50;100613.69;4968524;28;19914;-53
2023/03/17 01:20:45;;;;;;;;;;;;;;;14.38;68.67;100624.00;4973707;28;19940;-54
2023/03/17 01:23:12;;;;;;;;;;;;;;;14.01;69.72;100616.78;4974027;28;19926;-56
2023/03/17 01:25:40;;;;;;;;;;;;;;;14.29;69.59;100610.03;4968558;28;19964;-53
2023/03/17 01:28:05;;;;;;;;;;;;;;;14.05;69.86;100608.03;4968459;28;19978;-49
2023/03/17 01:30:36;;;;;;;;;;;;;;;14.10;70.09;100598.47;4969279;28;20021;-53
2023/03/17 01:33:02;;;;;;;;;;;;;;;14.13;69.75;100609.63;4971704;28;19960;-51
2023/03/17 01:35:29;;;;;;;;;;;;;;;14.14;69.51;100600.50;4969308;28;19918;-49
2023/03/17 01:37:56;;;;;;;;;;;;;;;13.97;69.53;100594.06;5032139;28;19918;-51
2023/03/17 01:40:23;;;;;;;;;;;;;;;13.79;69.81;100592.22;5058828;28;19913;-54
2023/03/17 01:42:53;;;;;;;;;;;;;;;13.88;69.80;100589.00;5055498;28;19928;-53
2023/03/17 01:45:38;;;;;;;;;;;;;;;14.25;68.75;100600.78;5055730;28;19916;-50
2023/03/17 01:48:03;;;;;;;;;;;;;;;14.27;68.36;100599.53;5057196;28;19912;-53
2023/03/17 01:50:29;;;;;;;;;;;;;;;14.10;68.09;100593.94;5056282;28;19970;-55
2023/03/17 01:52:54;;;;;;;;;;;;;;;14.08;67.97;100596.03;5058543;28;19917;-53
2023/03/17 01:55:20;;;;;;;;;;;;;;;14.16;67.90;100593.03;5053994;28;19920;-51
2023/03/17 01:57:52;;;;;;;;;;;;;;;13.93;68.68;100582.94;5051944;28;19913;-54
2023/03/17 02:00:22;;;;;;;;;;;;;;;13.82;68.53;100581.81;5054069;28;19913;-50
2023/03/17 02:02:52;;;;;;;;;;;;;;;14.11;67.86;100579.44;5062152;28;19972;-51
2023/03/17 02:05:22;;;;;;;;;;;;;;;13.75;68.53;100575.69;5061546;28;19920;-51
2023/03/17 02:07:49;;;;;;;;;;;;;;;13.97;68.21;100575.25;5054159;28;19972;-53
2023/03/17 02:10:18;;;;;;;;;;;;;;;13.99;68.14;100565.09;5050070;28;19939;-55
2023/03/17 02:12:44;;;;;;;;;;;;;;;13.99;67.26;100554.34;5051430;28;19917;-52
2023/03/17 02:15:10;;;;;;;;;;;;;;;13.87;67.84;100556.97;5056060;28;19917;-49
2023/03/17 02:17:37;;;;;;;;;;;;;;;13.95;67.31;100561.22;5058739;28;19917;-52
2023/03/17 02:20:29;;;;;;;;;;;;;;;14.11;66.89;100563.31;5054588;28;19912;-52
2023/03/17 02:22:56;;;;;;;;;;;;;;;14.29;66.34;100561.63;5061664;28;19919;-57
2023/03/17 02:25:22;;;;;;;;;;;;;;;14.12;66.39;100561.44;5056000;28;19924;-52
2023/03/17 02:27:50;;;;;;;;;;;;;;;14.05;66.65;100561.50;5049919;28;19912;-54
2023/03/17 02:30:19;;;;;;;;;;;;;;;14.15;66.06;100569.88;5057855;28;19917;-52
2023/03/17 02:32:46;;;;;;;;;;;;;;;13.78;67.65;100564.50;5053938;28;19984;-55
2023/03/17 02:35:12;;;;;;;;;;;;;;;13.75;67.78;100557.72;5058194;28;19913;-54
2023/03/17 02:37:38;;;;;;;;;;;;;;;13.68;68.27;100548.88;5056325;28;19917;-51
2023/03/17 02:40:04;;;;;;;;;;;;;;;13.93;67.58;100549.88;5063258;28;20321;-51
2023/03/17 02:42:31;;;;;;;;;;;;;;;13.73;68.21;100545.53;5049399;28;19940;-50
2023/03/17 02:44:57;;;;;;;;;;;;;;;14.10;66.66;100542.00;5051758;28;20007;-55
2023/03/17 02:47:22;;;;;;;;;;;;;;;14.12;66.97;100543.44;5052805;28;19913;-53
2023/03/17 02:49:48;;;;;;;;;;;;;;;14.26;66.52;100540.56;5055962;28;19914;-55
2023/03/17 02:52:13;;;;;;;;;;;;;;;14.74;65.00;100550.47;5053084;28;19979;-54
2023/03/17 02:54:39;;;;;;;;;;;;;;;14.18;66.25;100563.22;5051376;28;19948;-54
2023/03/17 02:57:05;;;;;;;;;;;;;;;14.02;66.75;100554.72;5052333;28;19913;-55
2023/03/17 02:59:31;;;;;;;;;;;;;;;14.10;67.05;100550.06;5057272;28;19948;-56
2023/03/17 03:01:56;;;;;;;;;;;;;;;14.58;65.37;100534.97;5056999;28;19935;-54
2023/03/17 03:04:23;;;;;;;;;;;;;;;14.80;64.86;100542.53;5062533;28;19919;-54
2023/03/17 03:06:49;;;;;;;;;;;;;;;15.03;64.20;100539.88;5049523;28;19913;-52
2023/03/17 03:09:16;;;;;;;;;;;;;;;14.94;64.15;100538.56;5053094;28;19935;-53
2023/03/17 03:11:42;;;;;;;;;;;;;;;14.64;64.46;100547.50;5056035;28;19924;-53
2023/03/17 03:14:07;;;;;;;;;;;;;;;14.22;65.96;100544.75;5055456;28;19951;-57
2023/03/17 03:16:33;;;;;;;;;;;;;;;13.96;67.42;100549.41;5055863;28;19913;-54
2023/03/17 03:18:58;;;;;;;;;;;;;;;13.79;67.70;100555.38;5052068;28;19943;-53
2023/03/17 03:21:24;;;;;;;;;;;;;;;13.77;68.45;100549.41;5054923;28;19927;-51
2023/03/17 03:23:50;;;;;;;;;;;;;;;13.76;68.64;100550.47;5049115;28;20023;-52
2023/03/17 03:26:15;;;;;;;;;;;;;;;13.69;68.97;100547.84;5052414;28;19944;-52
2023/03/17 03:28:41;;;;;;;;;;;;;;;13.88;68.72;100559.44;5052081;28;19913;-54
2023/03/17 03:31:07;;;;;;;;;;;;;;;13.61;68.62;100559.72;5044523;28;19929;-53
2023/03/17 03:33:32;;;;;;;;;;;;;;;13.93;68.43;100555.25;5056930;28;19917;-51
2023/03/17 03:35:58;;;;;;;;;;;;;;;13.83;69.18;100564.66;5053397;28;20452;-53
2023/03/17 03:38:24;;;;;;;;;;;;;;;13.78;69.41;100559.13;4994455;28;19940;-53
2023/03/17 03:40:50;;;;;;;;;;;;;;;13.55;69.40;100565.16;4989626;28;19921;-52
2023/03/17 03:43:15;;;;;;;;;;;;;;;14.02;68.73;100570.84;4989405;28;19922;-49
2023/03/17 03:45:41;;;;;;;;;;;;;;;14.18;68.02;100573.97;4989452;28;19921;-51
2023/03/17 03:48:07;;;;;;;;;;;;;;;13.89;68.63;100566.47;4992477;28;19925;-53
2023/03/17 03:50:33;;;;;;;;;;;;;;;13.99;68.25;100567.78;4991638;28;19980;-52
2023/03/17 03:52:58;;;;;;;;;;;;;;;13.95;68.31;100551.28;4989949;28;19922;-55
2023/03/17 03:55:24;;;;;;;;;;;;;;;13.97;68.47;100551.06;4996505;28;19917;-55
2023/03/17 03:57:49;;;;;;;;;;;;;;;13.86;69.09;100550.78;4990067;28;19921;-50
2023/03/17 04:00:16;;;;;;;;;;;;;;;14.01;68.45;100568.38;4995769;28;19922;-54
2023/03/17 04:02:45;;;;;;;;;;;;;;;14.05;68.39;100564.19;4991538;28;19914;-50
2023/03/17 04:05:11;;;;;;;;;;;;;;;14.21;67.93;100562.78;4995927;28;19925;-50
2023/03/17 04:07:37;;;;;;;;;;;;;;;14.28;67.33;100581.50;4993979;28;19911;-53
2023/03/17 04:10:03;;;;;;;;;;;;;;;14.15;68.04;100575.25;4991606;28;19914;-51
2023/03/17 04:12:29;;;;;;;;;;;;;;;13.89;68.67;100579.91;4983254;28;19918;-52
2023/03/17 04:14:55;;;;;;;;;;;;;;;14.12;68.58;100578.41;4989571;28;19920;-50
2023/03/17 04:17:21;;;;;;;;;;;;;;;14.04;67.64;100581.38;4992252;28;19949;-53
2023/03/17 04:19:46;;;;;;;;;;;;;;;13.93;68.34;100585.63;4989426;28;19914;-52
2023/03/17 04:22:12;;;;;;;;;;;;;;;13.86;67.90;100566.06;4983269;28;19936;-52
2023/03/17 04:24:37;;;;;;;;;;;;;;;13.83;67.68;100577.28;4990860;28;19924;-52
2023/03/17 04:27:03;;;;;;;;;;;;;;;14.16;66.84;100568.81;4991892;28;19953;-49
2023/03/17 04:29:29;;;;;;;;;;;;;;;14.15;66.41;100569.03;4993746;28;19914;-54
2023/03/17 04:31:54;;;;;;;;;;;;;;;14.25;66.42;100572.03;4992191;28;19921;-51
2023/03/17 04:34:20;;;;;;;;;;;;;;;14.53;65.30;100567.94;4987299;28;19938;-50
2023/03/17 04:36:46;;;;;;;;;;;;;;;13.98;66.27;100574.22;4989525;28;19925;-54
2023/03/17 04:39:12;;;;;;;;;;;;;;;14.15;66.26;100571.72;4991407;28;19921;-54
2023/03/17 04:41:37;;;;;;;;;;;;;;;14.24;65.99;100575.78;4989130;28;19918;-53
2023/03/17 04:44:03;;;;;;;;;;;;;;;14.17;66.05;100572.31;4990176;28;19914;-54
2023/03/17 04:46:28;;;;;;;;;;;;;;;14.50;65.21;100571.09;4991014;28;19914;-54
2023/03/17 04:48:54;;;;;;;;;;;;;;;14.16;66.52;100579.59;4993328;28;19914;-50
2023/03/17 04:51:19;;;;;;;;;;;;;;;14.28;66.16;100579.66;4994856;28;19937;-51
2023/03/17 04:53:45;;;;;;;;;;;;;;;14.17;66.14;100573.16;4991210;28;19930;-50
2023/03/17 04:56:10;;;;;;;;;;;;;;;14.16;66.07;100573.38;4989664;28;19947;-54
2023/03/17 04:58:36;;;;;;;;;;;;;;;14.20;66.14;100577.28;4990770;28;19922;-53
2023/03/17 05:01:02;;;;;;;;;;;;;;;14.30;65.78;100580.22;4992315;28;19914;-53
2023/03/17 05:03:29;;;;;;;;;;;;;;;14.13;66.09;100582.72;4988567;28;19922;-52
2023/03/17 05:05:54;;;;;;;;;;;;;;;14.13;66.43;100587.28;4992258;28;19915;-52
2023/03/17 05:08:20;;;;;;;;;;;;;;;14.38;65.96;100595.25;4988462;28;19914;-53
2023/03/17 05:10:46;;;;;;;;;;;;;;;14.43;65.70;100584.63;4988865;28;19981;-52
2023/03/17 05:13:11;;;;;;;;;;;;;;;14.05;66.48;100574.94;4994356;28;19937;-55
2023/03/17 05:15:38;;;;;;;;;;;;;;;13.98;66.87;100571.53;4989424;28;20391;-52
2023/03/17 05:18:03;;;;;;;;;;;;;;;13.92;67.26;100570.53;4986495;28;19914;-56
2023/03/17 05:20:30;;;;;;;;;;;;;;;14.13;66.72;100571.97;4989789;28;19932;-56
2023/03/17 05:22:56;;;;;;;;;;;;;;;14.26;66.21;100570.16;4991805;28;19914;-52
2023/03/17 05:25:21;;;;;;;;;;;;;;;14.11;66.44;100574.06;4994458;28;19914;-49
2023/03/17 05:27:48;;;;;;;;;;;;;;;14.21;66.42;100581.59;4993759;28;19922;-51
2023/03/17 05:30:13;;;;;;;;;;;;;;;14.48;65.82;100574.00;4985261;28;19941;-51
2023/03/17 05:32:39;;;;;;;;;;;;;;;14.00;67.26;100572.13;4986933;28;19918;-55
2023/03/17 05:35:04;;;;;;;;;;;;;;;13.90;67.96;100573.47;4984748;28;19939;-54
2023/03/17 05:37:31;;;;;;;;;;;;;;;13.98;67.84;100563.47;4955810;28;1033935;-52
2023/03/17 05:39:56;;;;;;;;;;;;;;;13.65;69.27;100560.09;4990605;28;19937;-54
2023/03/17 05:42:21;;;;;;;;;;;;;;;13.84;68.67;100574.38;4989953;28;19917;-53
2023/03/17 05:44:47;;;;;;;;;;;;;;;13.83;68.84;100561.97;4990806;28;19918;-54
2023/03/17 05:47:13;;;;;;;;;;;;;;;13.84;68.25;100560.09;4985472;28;19914;-54
2023/03/17 05:49:39;;;;;;;;;;;;;;;13.72;68.89;100560.03;4996116;28;19921;-54
2023/03/17 05:52:04;;;;;;;;;;;;;;;13.70;69.30;100556.75;4990434;28;19922;-51
2023/03/17 05:54:30;;;;;;;;;;;;;;;13.73;69.58;100558.97;4990496;28;19918;-55
2023/03/17 05:56:55;;;;;;;;;;;;;;;13.54;70.33;100556.28;4988126;28;19920;-52
2023/03/17 05:59:21;;;;;;;;;;;;;;;13.51;70.91;100548.66;4988241;28;19985;-53
2023/03/17 06:01:46;;;;;;;;;;;;;;;13.68;70.63;100548.09;4986034;28;19918;-51
2023/03/17 06:04:12;;;;;;;;;;;;;;;13.89;70.55;100546.81;4990515;28;19973;-54
2023/03/17 06:06:37;;;;;;;;;;;;;;;14.02;69.71;100548.50;4980926;28;19918;-54
2023/03/17 06:09:03;;;;;;;;;;;;;;;14.00;69.74;100550.59;4989363;28;19922;-52
2023/03/17 06:11:28;;;;;;;;;;;;;;;13.89;69.89;100550.31;4990548;28;19914;-51
2023/03/17 06:13:53;;;;;;;;;;;;;;;13.93;70.28;100544.50;4990093;28;19925;-50
2023/03/17 06:16:19;;;;;;;;;;;;;;;14.26;68.75;100552.16;4988650;28;20381;-55
2023/03/17 06:18:45;;;;;;;;;;;;;;;13.72;70.36;100549.28;4985969;28;19921;-53
2023/03/17 06:21:11;;;;;;;;;;;;;;;13.88;70.11;100554.06;4985445;28;19914;-49
2023/03/17 06:23:37;;;;;;;;;;;;;;;13.96;69.98;100562.88;4990450;28;19910;-54
2023/03/17 06:26:02;;;;;;;;;;;;;;;13.79;70.67;100558.06;4985869;28;19914;-54
2023/03/17 06:28:28;;;;;;;;;;;;;;;13.69;71.19;100552.41;4992119;28;19914;-50
2023/03/17 06:30:54;;;;;;;;;;;;;;;13.66;72.03;100550.19;4991629;28;19982;-48
2023/03/17 06:33:19;;;;;;;;;;;;;;;13.89;71.45;100565.63;4990209;28;19925;-52
2023/03/17 06:35:45;;;;;;;;;;;;;;;14.26;69.83;100575.53;4988812;28;19938;-53
2023/03/17 06:38:10;;;;;;;;;;;;;;;14.19;69.46;100568.38;4988313;28;19926;-51
2023/03/17 06:40:36;;;;;;;;;;;;;;;13.88;70.64;100564.81;4993536;28;19936;-50
2023/03/17 06:43:02;;;;;;;;;;;;;;;13.93;70.24;100568.69;4984538;28;19921;-55
2023/03/17 06:45:27;;;;;;;;;;;;;;;14.06;70.25;100557.75;4996523;28;19932;-50
2023/03/17 06:47:53;;;;;;;;;;;;;;;13.87;71.02;100557.81;4988813;28;19918;-53
2023/03/17 06:50:19;;;;;;;;;;;;;;;13.93;71.78;100555.25;4987943;28;19914;-51
2023/03/17 06:52:45;;;;;;;;;;;;;;;14.23;70.92;100555.31;4993552;28;19981;-55
2023/03/17 06:55:10;;;;;;;;;;;;;;;14.19;71.23;100559.50;4996006;28;19914;-52
2023/03/17 06:57:36;;;;;;;;;;;;;;;14.17;71.31;100567.78;4992158;28;19914;-53
2023/03/17 07:00:05;;;;;;;;;;;;;;;14.60;69.59;100570.53;4990326;28;19914;-51
2023/03/17 07:02:32;;;;;;;;;;;;;;;14.32;69.21;100577.34;4982371;28;19925;-56
2023/03/17 07:04:58;;;;;;;;;;;;;;;14.58;69.31;100573.44;4985925;28;19914;-55
2023/03/17 07:07:24;;;;;;;;;;;;;;;14.28;70.23;100568.03;4995378;28;19914;-51
2023/03/17 07:09:51;;;;;;;;;;;;;;;14.67;68.94;100581.22;4981671;28;19921;-53
2023/03/17 07:12:17;;;;;;;;;;;;;;;14.66;68.95;100577.69;4990804;28;19922;-53
2023/03/17 07:14:44;;;;;;;;;;;;;;;14.57;68.41;100568.31;4986907;28;19947;-52
2023/03/17 07:17:10;;;;;;;;;;;;;;;14.68;68.97;100567.50;4983922;28;19925;-53
2023/03/17 07:19:36;;;;;;;;;;;;;;;14.67;68.51;100570.44;4989721;28;19921;-50
2023/03/17 07:22:01;;;;;;;;;;;;;;;14.97;67.91;100564.22;4984906;28;19914;-53
2023/03/17 07:24:26;;;;;;;;;;;;;;;15.21;68.10;100559.66;4985000;28;19918;-53
2023/03/17 07:26:52;;;;;;;;;;;;;;;14.84;68.15;100565.25;4983414;28;19974;-56
2023/03/17 07:29:18;;;;;;;;;;;;;;;15.21;67.77;100559.66;4986619;28;19921;-52
2023/03/17 07:31:43;;;;;;;;;;;;;;;15.12;67.19;100575.38;4989230;28;19913;-51
2023/03/17 07:34:09;;;;;;;;;;;;;;;15.25;67.31;100582.41;4987069;28;20001;-52
2023/03/17 07:36:34;;;;;;;;;;;;;;;15.34;66.37;100574.81;4985409;28;19918;-51
2023/03/17 07:39:00;;;;;;;;;;;;;;;15.30;66.58;100560.97;4986031;28;19937;-53
2023/03/17 07:41:26;;;;;;;;;;;;;;;15.39;66.19;100571.41;4990443;28;19973;-52
2023/03/17 07:43:51;;;;;;;;;;;;;;;15.32;66.59;100568.81;4988326;28;19941;-50
2023/03/17 07:46:17;;;;;;;;;;;;;;;15.60;65.64;100562.72;4989026;28;19937;-53
2023/03/17 07:48:43;;;;;;;;;;;;;;;15.25;66.08;100551.94;4988291;28;19986;-52
2023/03/17 07:51:11;;;;;;;;;;;;;;;15.44;66.27;100547.25;4991984;28;19918;-49
2023/03/17 07:53:37;;;;;;;;;;;;;;;15.52;65.97;100541.53;4990267;28;19918;-54
2023/03/17 07:56:03;;;;;;;;;;;;;;;15.76;65.50;100553.09;4986614;28;19925;-54
2023/03/17 07:58:28;;;;;;;;;;;;;;;15.99;64.57;100559.50;4987405;28;19981;-53
2023/03/17 08:00:56;;;;;;;;;;;;;;;15.83;65.04;100566.44;4984836;28;19924;-53
2023/03/17 08:03:22;;;;;;;;;;;;;;;16.02;64.57;100569.00;4983838;28;19946;-55
2023/03/17 08:05:52;;;;;;;;;;;;;;;15.97;64.64;100560.81;4983783;28;19944;-53
2023/03/17 08:08:20;;;;;;;;;;;;;;;16.03;64.72;100558.00;4983455;28;19918;-52
2023/03/17 08:10:45;;;;;;;;;;;;;;;16.04;64.85;100566.91;4987008;28;19926;-56
2023/03/17 08:13:11;;;;;;;;;;;;;;;15.87;64.74;100577.59;4985491;28;19922;-53
2023/03/17 08:15:36;;;;;;;;;;;;;;;15.89;64.79;100575.50;4980525;28;19937;-53
2023/03/17 08:18:02;;;;;;;;;;;;;;;15.71;65.59;100569.16;4985797;28;19911;-52
2023/03/17 08:20:28;;;;;;;;;;;;;;;15.94;65.59;100564.00;4985501;28;19944;-55
2023/03/17 08:22:54;;;;;;;;;;;;;;;16.05;65.04;100571.22;4981818;28;19915;-52
2023/03/17 08:25:20;;;;;;;;;;;;;;;16.00;64.97;100561.16;4981607;28;19914;-51
2023/03/17 08:27:46;;;;;;;;;;;;;;;16.16;64.21;100558.78;4983076;28;19937;-55
2023/03/17 08:30:11;;;;;;;;;;;;;;;16.29;64.39;100565.75;4990305;28;19945;-49
2023/03/17 08:32:37;;;;;;;;;;;;;;;16.46;63.49;100569.34;4988455;28;19949;-54
2023/03/17 08:35:04;;;;;;;;;;;;;;;16.22;63.62;100571.28;4988912;28;19921;-54
2023/03/17 08:37:31;;;;;;;;;;;;;;;16.81;63.36;100553.19;4986678;28;19978;-51
2023/03/17 08:39:56;;;;;;;;;;;;;;;16.88;62.94;100556.56;4985047;28;19917;-51
2023/03/17 08:42:22;;;;;;;;;;;;;;;16.93;63.22;100559.34;4985567;28;19940;-52
2023/03/17 08:44:48;;;;;;;;;;;;;;;16.91;62.75;100558.78;4984686;28;19918;-53
2023/03/17 08:47:15;;;;;;;;;;;;;;;17.05;62.51;100549.28;4982949;28;19906;-54
2023/03/17 08:49:41;;;;;;;;;;;;;;;16.98;62.65;100551.34;4994474;28;19922;-52
2023/03/17 08:52:06;;;;;;;;;;;;;;;17.43;61.94;100537.97;4990121;28;19954;-52
2023/03/17 08:54:33;;;;;;;;;;;;;;;17.55;60.88;100540.56;4990713;28;19936;-54
2023/03/17 08:57:00;;;;;;;;;;;;;;;18.35;59.82;100551.03;4990857;28;19918;-53
2023/03/17 08:59:26;;;;;;;;;;;;;;;17.88;59.95;100550.47;4988868;28;19937;-53
2023/03/17 09:01:51;;;;;;;;;;;;;;;18.34;58.67;100557.50;4989018;28;19914;-53
2023/03/17 09:04:16;;;;;;;;;;;;;;;18.55;57.97;100569.34;4988641;28;19918;-52
2023/03/17 09:06:42;;;;;;;;;;;;;;;18.80;57.59;100556.31;4978834;28;19929;-55
2023/03/17 09:09:07;;;;;;;;;;;;;;;19.12;56.91;100558.22;4985697;28;19977;-53
2023/03/17 09:11:32;;;;;;;;;;;;;;;19.41;55.28;100550.56;4987606;28;19918;-56
2023/03/17 09:13:58;;;;;;;;;;;;;;;19.68;54.17;100552.31;4982323;28;20033;-54
2023/03/17 09:16:25;;;;;;;;;;;;;;;19.43;54.06;100567.38;4988356;28;19914;-56
2023/03/17 09:18:51;;;;;;;;;;;;;;;19.67;54.23;100577.81;4984579;28;19924;-54
2023/03/17 09:21:17;;;;;;;;;;;;;;;19.95;53.91;100585.88;4981662;28;19966;-55
2023/03/17 09:23:42;;;;;;;;;;;;;;;19.68;53.88;100587.59;4982293;28;19914;-54
2023/03/17 09:26:09;;;;;;;;;;;;;;;19.96;53.53;100598.34;4982961;28;19919;-53
2023/03/17 09:28:34;;;;;;;;;;;;;;;20.44;53.09;100595.53;4984183;28;19918;-57
2023/03/17 09:31:01;;;;;;;;;;;;;;;20.46;52.73;100605.03;4986713;28;19952;-57
2023/03/17 09:33:27;;;;;;;;;;;;;;;19.84;53.87;100601.25;4983896;28;19918;-56
2023/03/17 09:35:55;;;;;;;;;;;;;;;20.00;53.79;100604.88;4985974;28;19914;-57
2023/03/17 09:38:22;;;;;;;;;;;;;;;19.73;54.07;100597.66;4987095;28;20012;-53
2023/03/17 09:40:52;;;;;;;;;;;;;;;19.68;53.76;100601.16;4984755;28;19922;-57
2023/03/17 09:43:38;;;;;;;;;;;;;;;19.57;54.26;100615.75;4988938;28;19917;-56
2023/03/17 09:46:14;;;;;;;;;;;;;;;20.58;52.40;100618.38;4983721;28;19914;-54
2023/03/17 09:48:39;;;;;;;;;;;;;;;20.94;51.58;100620.34;4984653;28;19918;-55
2023/03/17 09:51:07;;;;;;;;;;;;;;;20.82;51.91;100623.34;4985909;28;19998;-56
2023/03/17 09:53:35;;;;;;;;;;;;;;;21.37;50.94;100622.00;4982540;28;19933;-57
2023/03/17 09:56:05;;;;;;;;;;;;;;;22.14;49.91;100623.75;4982487;28;19915;-55
2023/03/17 09:58:32;;;;;;;;;;;;;;;22.58;48.80;100627.63;4985409;28;19915;-54
2023/03/17 10:00:58;;;;;;;;;;;;;;;23.39;47.54;100621.06;4982219;28;20108;-54
2023/03/17 10:03:24;;;;;;;;;;;;;;;24.20;46.00;100609.53;4982908;28;19925;-51
2023/03/17 10:05:50;;;;;;;;;;;;;;;23.88;45.43;100619.97;4978875;28;20016;-54
2023/03/17 10:08:29;;;;;;;;;;;;;;;24.19;45.31;100616.91;4982228;28;19913;-57
2023/03/17 10:11:08;;;;;;;;;;;;;;;25.41;42.71;100618.38;4982687;28;19921;-56
2023/03/17 10:13:53;;;;;;;;;;;;;;;25.30;42.50;100621.28;4981586;28;19953;-57
2023/03/17 10:16:21;;;;;;;;;;;;;;;24.66;43.07;100612.72;4985556;28;19914;-56
2023/03/17 10:18:52;;;;;;;;;;;;;;;24.92;42.92;100608.50;4985618;28;19914;-54
2023/03/17 10:21:21;;;;;;;;;;;;;;;25.06;42.28;100624.97;4984288;28;19919;-54
2023/03/17 10:23:47;;;;;;;;;;;;;;;24.55;42.09;100650.31;4986336;28;19918;-57
2023/03/17 10:26:15;;;;;;;;;;;;;;;23.67;43.31;100656.78;4981442;28;19936;-54
2023/03/17 10:28:41;;;;;;;;;;;;;;;22.99;44.27;100665.53;4987385;28;19935;-54
2023/03/17 10:31:14;;;;;;;;;;;;;;;23.71;44.00;100655.94;4982578;28;19990;-54
2023/03/17 10:33:39;;;;;;;;;;;;;;;23.59;43.48;100661.78;4984131;28;19918;-51
2023/03/17 10:36:09;;;;;;;;;;;;;;;24.38;43.16;100662.56;4985479;28;19918;-52
2023/03/17 10:38:35;;;;;;;;;;;;;;;24.83;42.72;100661.44;4987613;28;19985;-53
2023/03/17 10:41:05;;;;;;;;;;;;;;;25.95;41.29;100648.88;4986737;28;19995;-55
2023/03/17 10:43:35;;;;;;;;;;;;;;;26.77;40.46;100657.28;4981652;28;19914;-54
2023/03/17 10:46:03;;;;;;;;;;;;;;;26.32;40.25;100652.50;4987862;28;19914;-54
2023/03/17 10:48:29;;;;;;;;;;;;;;;26.65;39.08;100637.81;4983736;28;19918;-56
2023/03/17 10:50:57;;;;;;;;;;;;;;;26.59;39.05;100641.78;4978759;28;19944;-54
2023/03/17 10:53:26;;;;;;;;;;;;;;;26.66;39.00;100650.41;4983654;28;19984;-51
2023/03/17 10:55:55;;;;;;;;;;;;;;;26.19;39.72;100653.34;4980976;28;19914;-53
2023/03/17 10:58:31;;;;;;;;;;;;;;;24.95;40.84;100645.41;4974805;28;19949;-51
2023/03/17 11:01:01;;;;;;;;;;;;;;;24.92;41.30;100635.84;4977399;28;19921;-54
2023/03/17 11:03:34;;;;;;;;;;;;;;;24.28;41.98;100649.03;4984862;28;19914;-53
2023/03/17 11:06:01;;;;;;;;;;;;;;;23.77;43.23;100643.06;4980131;28;19940;-57
2023/03/17 11:08:34;;;;;;;;;;;;;;;23.39;43.69;100623.78;4980981;28;19914;-53
2023/03/17 11:11:03;;;;;;;;;;;;;;;23.20;43.44;100613.53;4983793;28;19914;-56
2023/03/17 11:13:29;;;;;;;;;;;;;;;23.89;43.30;100604.44;4989558;28;19936;-54
2023/03/17 11:16:00;;;;;;;;;;;;;;;23.73;43.55;100622.88;4981453;28;19964;-54
2023/03/17 11:18:36;;;;;;;;;;;;;;;24.24;43.49;100617.97;4987819;28;19975;-57
2023/03/17 11:21:04;;;;;;;;;;;;;;;23.69;44.31;100630.03;4985660;28;20417;-56
2023/03/17 11:23:50;;;;;;;;;;;;;;;23.62;44.75;100633.91;4985368;28;19918;-55
2023/03/17 11:26:35;;;;;;;;;;;;;;;24.56;43.81;100630.88;4988528;28;19936;-55
2023/03/17 11:29:21;;;;;;;;;;;;;;;25.81;42.12;100628.88;4983139;28;19918;-55
2023/03/17 11:31:53;;;;;;;;;;;;;;;26.14;40.77;100624.09;4957550;28;19914;-55
2023/03/17 11:34:26;;;;;;;;;;;;;;;26.33;39.86;100625.94;4984911;28;19944;-54
2023/03/17 11:36:54;;;;;;;;;;;;;;;27.95;38.24;100621.63;4983626;28;19918;-52
2023/03/17 11:39:24;;;;;;;;;;;;;;;29.15;36.68;100621.56;4984339;28;19914;-56
2023/03/17 11:42:05;;;;;;;;;;;;;;;28.51;36.77;100617.53;4989525;28;19945;-53
2023/03/17 11:44:34;;;;;;;;;;;;;;;29.24;36.01;100614.06;4985828;28;19920;-55
2023/03/17 11:47:06;;;;;;;;;;;;;;;29.18;35.81;100610.72;4986148;28;19922;-56
2023/03/17 11:49:35;;;;;;;;;;;;;;;28.18;36.95;100607.81;4977644;28;19918;-54
2023/03/17 11:52:04;;;;;;;;;;;;;;;28.13;37.09;100607.94;4986082;28;19925;-55
2023/03/17 11:54:37;;;;;;;;;;;;;;;29.03;36.09;100612.00;4994724;28;19918;-58
2023/03/17 11:57:04;;;;;;;;;;;;;;;29.04;35.33;100615.59;4984448;28;19965;-55
2023/03/17 11:59:53;;;;;;;;;;;;;;;29.54;34.74;100613.34;4989589;28;19914;-54
2023/03/17 12:02:35;;;;;;;;;;;;;;;29.83;34.44;100614.50;4989095;28;19914;-55
2023/03/17 12:05:04;;;;;;;;;;;;;;;29.87;34.06;100608.00;4982062;28;19915;-57
2023/03/17 12:07:33;;;;;;;;;;;;;;;29.60;34.45;100599.06;4987678;28;19945;-56
2023/03/17 12:10:07;;;;;;;;;;;;;;;30.21;34.20;100599.06;4984912;28;19918;-57
2023/03/17 12:12:37;;;;;;;;;;;;;;;30.69;33.00;100603.25;4988102;28;19943;-56
2023/03/17 12:15:04;;;;;;;;;;;;;;;30.73;32.64;100593.16;4983299;28;19924;-56
2023/03/17 12:17:48;;;;;;;;;;;;;;;30.90;32.79;100594.09;4984021;28;19961;-57
2023/03/17 12:20:17;;;;;;;;;;;;;;;30.70;32.53;100582.81;4987737;28;19921;-55
2023/03/17 12:23:01;;;;;;;;;;;;;;;30.45;33.14;100595.66;4983480;28;19966;-57
2023/03/17 12:25:34;;;;;;;;;;;;;;;29.76;33.88;100595.78;4981796;28;19968;-57
2023/03/17 12:28:02;;;;;;;;;;;;;;;30.32;33.71;100594.78;4983912;28;19962;-55
2023/03/17 12:30:48;;;;;;;;;;;;;;;30.32;33.88;100586.50;4985291;28;19924;-55
2023/03/17 12:33:39;;;;;;;;;;;;;;;31.04;32.70;100596.59;4983200;28;19918;-57
2023/03/17 12:36:06;;;;;;;;;;;;;;;30.80;32.66;100584.34;4984833;28;19949;-56
2023/03/17 12:38:38;;;;;;;;;;;;;;;30.73;32.66;100581.28;4985076;28;19922;-56